< < Back
Terminal Aerodrome Forecast


Current Version              Previous Versions:   1  2  3  4  5  6  7  8  9  

Terminal Aerodrome Forecast

633
FTUS42 KJAX 060312 AAC
TAFSSI
TAF AMD
KSSI 060312Z 0603/0624 31011G20KT P6SM VCSH SCT010 BKN015 OVC050
     FM061100 02011G18KT P6SM VCSH SCT006 BKN009 OVC025
     FM061300 03013G20KT 5SM -RA BR BKN006 OVC020=



Latest METAR

222
SAUS70 KWBC 060900 RRE
MTRSSI
METAR KSSI 060853Z AUTO 03015G20KT 3SM -RA BR OVC009 10/09 A3023 RMK AO2
RAB49 CIG 006V011 SLP236 P0000 60000 T01000089 51015


USA.gov is the U.S. government's official web portal to all federal, state and local government web resources and services.